sensor_id;sensor_type;location;lat;lon;timestamp;pressure;altitude;pressure_sealevel;temperature;humidity
54854;BME280;40747;49.480;8.658;2023-05-23T00:01:19;100141.53;;;19.03;95.85
54854;BME280;40747;49.480;8.658;2023-05-23T00:03:45;100141.09;;;18.96;96.56
54854;BME280;40747;49.480;8.658;2023-05-23T00:06:11;100129.63;;;18.81;96.46
54854;BME280;40747;49.480;8.658;2023-05-23T00:08:36;100149.06;;;18.43;98.94
54854;BME280;40747;49.480;8.658;2023-05-23T00:11:01;100151.97;;;18.26;100.00
54854;BME280;40747;49.480;8.658;2023-05-23T00:13:27;100147.66;;;18.38;100.00
54854;BME280;40747;49.480;8.658;2023-05-23T00:15:52;100147.69;;;17.96;100.00
54854;BME280;40747;49.480;8.658;2023-05-23T00:18:17;100149.81;;;17.76;100.00
54854;BME280;40747;49.480;8.658;2023-05-23T00:20:43;100152.53;;;17.75;100.00
54854;BME280;40747;49.480;8.658;2023-05-23T00:23:10;100139.94;;;17.49;100.00
54854;BME280;40747;49.480;8.658;2023-05-23T00:25:42;100148.50;;;17.55;100.00
54854;BME280;40747;49.480;8.658;2023-05-23T00:28:12;100149.97;;;17.73;100.00
54854;BME280;40747;49.480;8.658;2023-05-23T00:30:38;100146.38;;;17.74;100.00
54854;BME280;40747;49.480;8.658;2023-05-23T00:33:03;100145.41;;;17.90;100.00
54854;BME280;40747;49.480;8.658;2023-05-23T00:35:28;100149.22;;;17.85;100.00
54854;BME280;40747;49.480;8.658;2023-05-23T00:37:53;100145.50;;;17.88;100.00
54854;BME280;40747;49.480;8.658;2023-05-23T00:40:20;100143.44;;;17.93;100.00
54854;BME280;40747;49.480;8.658;2023-05-23T00:42:46;100146.16;;;17.77;100.00
54854;BME280;40747;49.480;8.658;2023-05-23T00:45:14;100139.53;;;17.70;100.00
54854;BME280;40747;49.480;8.658;2023-05-23T00:47:40;100134.31;;;17.54;100.00
54854;BME280;40747;49.480;8.658;2023-05-23T00:50:11;100143.22;;;17.82;100.00
54854;BME280;40747;49.480;8.658;2023-05-23T00:52:37;100136.28;;;17.94;100.00
54854;BME280;40747;49.480;8.658;2023-05-23T00:55:03;100148.59;;;18.09;100.00
54854;BME280;40747;49.480;8.658;2023-05-23T00:57:29;100145.16;;;17.94;100.00
54854;BME280;40747;49.480;8.658;2023-05-23T00:59:54;100154.53;;;18.00;100.00
54854;BME280;40747;49.480;8.658;2023-05-23T01:02:20;100152.13;;;18.10;100.00
54854;BME280;40747;49.480;8.658;2023-05-23T01:04:48;100154.19;;;18.19;100.00
54854;BME280;40747;49.480;8.658;2023-05-23T01:07:18;100153.34;;;18.18;100.00
54854;BME280;40747;49.480;8.658;2023-05-23T01:09:44;100148.56;;;18.24;100.00
54854;BME280;40747;49.480;8.658;2023-05-23T01:14:48;100156.97;;;18.17;99.52
54854;BME280;40747;49.480;8.658;2023-05-23T01:17:27;100147.28;;;17.88;100.00
54854;BME280;40747;49.480;8.658;2023-05-23T01:20:01;100161.63;;;17.43;100.00
54854;BME280;40747;49.480;8.658;2023-05-23T01:22:37;100159.88;;;17.13;100.00
54854;BME280;40747;49.480;8.658;2023-05-23T01:25:10;100155.69;;;17.09;100.00
54854;BME280;40747;49.480;8.658;2023-05-23T01:27:50;100156.84;;;17.05;100.00
54854;BME280;40747;49.480;8.658;2023-05-23T01:30:18;100161.97;;;17.08;100.00
54854;BME280;40747;49.480;8.658;2023-05-23T01:32:47;100170.16;;;16.89;100.00
54854;BME280;40747;49.480;8.658;2023-05-23T01:35:16;100162.25;;;16.73;100.00
54854;BME280;40747;49.480;8.658;2023-05-23T01:37:44;100140.75;;;16.62;100.00
54854;BME280;40747;49.480;8.658;2023-05-23T01:40:10;100167.72;;;16.70;100.00
54854;BME280;40747;49.480;8.658;2023-05-23T01:42:36;100166.53;;;16.76;100.00
54854;BME280;40747;49.480;8.658;2023-05-23T01:45:02;100178.91;;;16.61;100.00
54854;BME280;40747;49.480;8.658;2023-05-23T01:47:28;100179.41;;;16.67;100.00
54854;BME280;40747;49.480;8.658;2023-05-23T01:49:54;100185.41;;;16.71;100.00
54854;BME280;40747;49.480;8.658;2023-05-23T01:52:21;100181.00;;;16.86;100.00
54854;BME280;40747;49.480;8.658;2023-05-23T01:54:48;100183.41;;;16.91;100.00
54854;BME280;40747;49.480;8.658;2023-05-23T01:57:15;100178.34;;;16.86;100.00
54854;BME280;40747;49.480;8.658;2023-05-23T01:59:40;100189.22;;;16.97;100.00
54854;BME280;40747;49.480;8.658;2023-05-23T02:02:05;100181.50;;;16.93;100.00
54854;BME280;40747;49.480;8.658;2023-05-23T02:04:31;100192.09;;;16.78;100.00
54854;BME280;40747;49.480;8.658;2023-05-23T02:06:56;100191.59;;;16.71;100.00
54854;BME280;40747;49.480;8.658;2023-05-23T02:09:21;100193.81;;;16.63;100.00
54854;BME280;40747;49.480;8.658;2023-05-23T02:11:47;100188.28;;;16.82;100.00
54854;BME280;40747;49.480;8.658;2023-05-23T02:14:13;100196.75;;;17.05;100.00
54854;BME280;40747;49.480;8.658;2023-05-23T02:16:38;100197.22;;;16.97;100.00
54854;BME280;40747;49.480;8.658;2023-05-23T02:19:05;100194.97;;;16.90;100.00
54854;BME280;40747;49.480;8.658;2023-05-23T02:21:31;100202.53;;;16.97;100.00
54854;BME280;40747;49.480;8.658;2023-05-23T02:23:56;100198.00;;;17.14;100.00
54854;BME280;40747;49.480;8.658;2023-05-23T02:26:21;100191.28;;;17.23;100.00
54854;BME280;40747;49.480;8.658;2023-05-23T02:28:46;100198.22;;;17.25;100.00
54854;BME280;40747;49.480;8.658;2023-05-23T02:31:12;100191.56;;;17.32;100.00
54854;BME280;40747;49.480;8.658;2023-05-23T02:33:37;100196.72;;;17.35;100.00
54854;BME280;40747;49.480;8.658;2023-05-23T02:36:02;100194.63;;;17.41;100.00
54854;BME280;40747;49.480;8.658;2023-05-23T02:38:28;100197.06;;;17.44;100.00
54854;BME280;40747;49.480;8.658;2023-05-23T02:40:55;100208.44;;;17.17;100.00
54854;BME280;40747;49.480;8.658;2023-05-23T02:43:21;100207.41;;;17.34;100.00
54854;BME280;40747;49.480;8.658;2023-05-23T02:45:47;100214.31;;;17.38;100.00
54854;BME280;40747;49.480;8.658;2023-05-23T02:48:12;100215.34;;;17.50;100.00
54854;BME280;40747;49.480;8.658;2023-05-23T02:50:37;100215.97;;;17.39;100.00
54854;BME280;40747;49.480;8.658;2023-05-23T02:53:03;100212.22;;;17.43;100.00
54854;BME280;40747;49.480;8.658;2023-05-23T02:55:28;100216.41;;;17.47;100.00
54854;BME280;40747;49.480;8.658;2023-05-23T02:57:56;100220.72;;;17.34;100.00
54854;BME280;40747;49.480;8.658;2023-05-23T03:00:22;100203.81;;;17.20;100.00
54854;BME280;40747;49.480;8.658;2023-05-23T03:02:47;100219.97;;;17.17;100.00
54854;BME280;40747;49.480;8.658;2023-05-23T03:05:13;100226.03;;;16.89;100.00
54854;BME280;40747;49.480;8.658;2023-05-23T03:07:38;100220.56;;;16.76;100.00
54854;BME280;40747;49.480;8.658;2023-05-23T03:10:04;100227.78;;;16.74;100.00
54854;BME280;40747;49.480;8.658;2023-05-23T03:12:29;100230.84;;;16.98;100.00
54854;BME280;40747;49.480;8.658;2023-05-23T03:14:55;100224.50;;;17.01;100.00
54854;BME280;40747;49.480;8.658;2023-05-23T03:17:20;100214.88;;;16.82;100.00
54854;BME280;40747;49.480;8.658;2023-05-23T03:19:45;100235.13;;;17.01;100.00
54854;BME280;40747;49.480;8.658;2023-05-23T03:22:11;100231.16;;;17.08;100.00
54854;BME280;40747;49.480;8.658;2023-05-23T03:24:36;100223.75;;;17.13;100.00
54854;BME280;40747;49.480;8.658;2023-05-23T03:27:01;100231.69;;;16.99;100.00
54854;BME280;40747;49.480;8.658;2023-05-23T03:29:27;100233.00;;;16.92;100.00
54854;BME280;40747;49.480;8.658;2023-05-23T03:31:52;100224.22;;;16.90;100.00
54854;BME280;40747;49.480;8.658;2023-05-23T03:34:17;100224.88;;;17.09;100.00
54854;BME280;40747;49.480;8.658;2023-05-23T03:36:43;100230.09;;;17.11;100.00
54854;BME280;40747;49.480;8.658;2023-05-23T03:39:08;100227.28;;;17.14;100.00
54854;BME280;40747;49.480;8.658;2023-05-23T03:41:33;100240.47;;;17.01;100.00
54854;BME280;40747;49.480;8.658;2023-05-23T03:43:59;100237.03;;;16.99;100.00
54854;BME280;40747;49.480;8.658;2023-05-23T03:46:25;100245.00;;;16.99;100.00
54854;BME280;40747;49.480;8.658;2023-05-23T03:48:50;100242.66;;;17.09;100.00
54854;BME280;40747;49.480;8.658;2023-05-23T03:51:16;100240.81;;;16.95;100.00
54854;BME280;40747;49.480;8.658;2023-05-23T03:53:41;100234.38;;;16.99;100.00
54854;BME280;40747;49.480;8.658;2023-05-23T03:56:06;100246.38;;;17.06;100.00
54854;BME280;40747;49.480;8.658;2023-05-23T03:58:32;100239.31;;;17.05;100.00
54854;BME280;40747;49.480;8.658;2023-05-23T04:00:57;100248.44;;;17.01;100.00
54854;BME280;40747;49.480;8.658;2023-05-23T04:03:22;100245.50;;;16.90;100.00
54854;BME280;40747;49.480;8.658;2023-05-23T04:05:48;100252.41;;;16.94;100.00
54854;BME280;40747;49.480;8.658;2023-05-23T04:08:13;100253.44;;;16.91;100.00
54854;BME280;40747;49.480;8.658;2023-05-23T04:10:39;100258.22;;;16.84;100.00
54854;BME280;40747;49.480;8.658;2023-05-23T04:13:05;100249.03;;;16.90;100.00
54854;BME280;40747;49.480;8.658;2023-05-23T04:15:31;100258.22;;;16.84;100.00
54854;BME280;40747;49.480;8.658;2023-05-23T04:17:58;100255.38;;;16.87;100.00
54854;BME280;40747;49.480;8.658;2023-05-23T04:20:24;100249.66;;;16.79;100.00
54854;BME280;40747;49.480;8.658;2023-05-23T04:22:49;100261.50;;;16.74;100.00
54854;BME280;40747;49.480;8.658;2023-05-23T04:25:14;100260.91;;;16.68;100.00
54854;BME280;40747;49.480;8.658;2023-05-23T04:27:43;100261.09;;;16.65;100.00
54854;BME280;40747;49.480;8.658;2023-05-23T04:30:09;100265.63;;;16.63;100.00
54854;BME280;40747;49.480;8.658;2023-05-23T04:32:35;100260.59;;;16.59;100.00
54854;BME280;40747;49.480;8.658;2023-05-23T04:35:00;100272.41;;;16.53;100.00
54854;BME280;40747;49.480;8.658;2023-05-23T04:37:26;100275.34;;;16.48;100.00
54854;BME280;40747;49.480;8.658;2023-05-23T04:39:52;100279.63;;;16.35;100.00
54854;BME280;40747;49.480;8.658;2023-05-23T04:42:17;100285.88;;;16.34;100.00
54854;BME280;40747;49.480;8.658;2023-05-23T04:44:49;100278.22;;;16.28;100.00
54854;BME280;40747;49.480;8.658;2023-05-23T04:47:16;100286.81;;;16.33;100.00
54854;BME280;40747;49.480;8.658;2023-05-23T04:49:42;100291.53;;;16.28;100.00
54854;BME280;40747;49.480;8.658;2023-05-23T04:52:07;100291.88;;;16.21;100.00
54854;BME280;40747;49.480;8.658;2023-05-23T04:54:32;100294.19;;;16.12;100.00
54854;BME280;40747;49.480;8.658;2023-05-23T04:56:58;100304.81;;;16.12;100.00
54854;BME280;40747;49.480;8.658;2023-05-23T04:59:23;100308.72;;;16.04;100.00
54854;BME280;40747;49.480;8.658;2023-05-23T05:01:48;100303.69;;;16.00;100.00
54854;BME280;40747;49.480;8.658;2023-05-23T05:04:14;100302.72;;;16.01;100.00
54854;BME280;40747;49.480;8.658;2023-05-23T05:06:40;100308.53;;;15.92;100.00
54854;BME280;40747;49.480;8.658;2023-05-23T05:09:05;100310.53;;;16.04;100.00
54854;BME280;40747;49.480;8.658;2023-05-23T05:11:30;100311.78;;;15.97;100.00
54854;BME280;40747;49.480;8.658;2023-05-23T05:13:56;100312.16;;;16.07;100.00
54854;BME280;40747;49.480;8.658;2023-05-23T05:16:21;100318.31;;;16.07;100.00
54854;BME280;40747;49.480;8.658;2023-05-23T05:18:47;100322.63;;;16.10;100.00
54854;BME280;40747;49.480;8.658;2023-05-23T05:21:13;100313.00;;;16.07;100.00
54854;BME280;40747;49.480;8.658;2023-05-23T05:23:38;100324.94;;;16.00;100.00
54854;BME280;40747;49.480;8.658;2023-05-23T05:26:03;100318.66;;;16.01;100.00
54854;BME280;40747;49.480;8.658;2023-05-23T05:28:29;100319.88;;;16.11;100.00
54854;BME280;40747;49.480;8.658;2023-05-23T05:30:54;100332.91;;;16.16;100.00
54854;BME280;40747;49.480;8.658;2023-05-23T05:33:21;100326.25;;;16.25;100.00
54854;BME280;40747;49.480;8.658;2023-05-23T05:35:48;100334.47;;;16.20;100.00
54854;BME280;40747;49.480;8.658;2023-05-23T05:38:15;100337.63;;;16.11;100.00
54854;BME280;40747;49.480;8.658;2023-05-23T05:40:40;100337.38;;;16.15;100.00
54854;BME280;40747;49.480;8.658;2023-05-23T05:43:06;100338.56;;;16.10;100.00
54854;BME280;40747;49.480;8.658;2023-05-23T05:45:31;100349.25;;;16.26;100.00
54854;BME280;40747;49.480;8.658;2023-05-23T05:47:57;100348.72;;;16.19;100.00
54854;BME280;40747;49.480;8.658;2023-05-23T05:50:23;100352.53;;;16.13;100.00
54854;BME280;40747;49.480;8.658;2023-05-23T05:52:48;100357.53;;;16.19;100.00
54854;BME280;40747;49.480;8.658;2023-05-23T05:55:13;100359.41;;;16.17;100.00
54854;BME280;40747;49.480;8.658;2023-05-23T05:57:39;100375.28;;;16.19;99.82
54854;BME280;40747;49.480;8.658;2023-05-23T06:00:06;100361.81;;;16.22;100.00
54854;BME280;40747;49.480;8.658;2023-05-23T06:02:37;100368.59;;;16.28;100.00
54854;BME280;40747;49.480;8.658;2023-05-23T06:05:03;100370.16;;;16.32;100.00
54854;BME280;40747;49.480;8.658;2023-05-23T06:07:30;100369.50;;;16.44;99.51
54854;BME280;40747;49.480;8.658;2023-05-23T06:09:55;100356.47;;;16.40;99.44
54854;BME280;40747;49.480;8.658;2023-05-23T06:12:21;100382.22;;;16.55;99.00
54854;BME280;40747;49.480;8.658;2023-05-23T06:14:46;100379.97;;;16.63;98.71
54854;BME280;40747;49.480;8.658;2023-05-23T06:17:11;100383.56;;;16.62;98.85
54854;BME280;40747;49.480;8.658;2023-05-23T06:19:36;100381.78;;;16.63;97.41
54854;BME280;40747;49.480;8.658;2023-05-23T06:22:02;100381.03;;;16.77;98.24
54854;BME280;40747;49.480;8.658;2023-05-23T06:24:28;100380.75;;;16.81;97.34
54854;BME280;40747;49.480;8.658;2023-05-23T06:26:53;100380.28;;;16.91;97.67
54854;BME280;40747;49.480;8.658;2023-05-23T06:29:21;100385.72;;;16.87;96.20
54854;BME280;40747;49.480;8.658;2023-05-23T06:31:47;100387.38;;;16.90;95.48
54854;BME280;40747;49.480;8.658;2023-05-23T06:34:12;100380.50;;;16.86;96.17
54854;BME280;40747;49.480;8.658;2023-05-23T06:36:37;100389.34;;;16.86;95.85
54854;BME280;40747;49.480;8.658;2023-05-23T06:39:02;100397.84;;;16.77;94.51
54854;BME280;40747;49.480;8.658;2023-05-23T06:41:28;100400.81;;;16.71;94.39
54854;BME280;40747;49.480;8.658;2023-05-23T06:43:53;100393.00;;;16.52;94.23
54854;BME280;40747;49.480;8.658;2023-05-23T06:46:18;100402.78;;;16.67;94.88
54854;BME280;40747;49.480;8.658;2023-05-23T06:48:43;100409.50;;;16.59;94.20
54854;BME280;40747;49.480;8.658;2023-05-23T06:51:09;100417.56;;;16.73;95.01
54854;BME280;40747;49.480;8.658;2023-05-23T06:53:35;100415.19;;;16.84;94.94
54854;BME280;40747;49.480;8.658;2023-05-23T06:56:00;100414.44;;;16.98;93.64
54854;BME280;40747;49.480;8.658;2023-05-23T06:58:26;100421.22;;;17.04;92.25
54854;BME280;40747;49.480;8.658;2023-05-23T07:00:51;100425.50;;;17.07;91.50
54854;BME280;40747;49.480;8.658;2023-05-23T07:03:16;100416.69;;;17.06;92.22
54854;BME280;40747;49.480;8.658;2023-05-23T07:05:42;100419.06;;;17.11;91.35
54854;BME280;40747;49.480;8.658;2023-05-23T07:08:07;100427.81;;;17.13;90.10
54854;BME280;40747;49.480;8.658;2023-05-23T07:10:34;100425.69;;;17.03;88.90
54854;BME280;40747;49.480;8.658;2023-05-23T07:13:00;100419.69;;;17.00;87.62
54854;BME280;40747;49.480;8.658;2023-05-23T07:15:25;100434.88;;;17.14;87.57
54854;BME280;40747;49.480;8.658;2023-05-23T07:17:50;100435.63;;;17.16;87.38
54854;BME280;40747;49.480;8.658;2023-05-23T07:20:16;100438.56;;;17.11;86.27
54854;BME280;40747;49.480;8.658;2023-05-23T07:22:41;100446.09;;;17.03;85.66
54854;BME280;40747;49.480;8.658;2023-05-23T07:25:07;100444.22;;;17.05;86.54
54854;BME280;40747;49.480;8.658;2023-05-23T07:27:33;100447.50;;;17.10;85.81
54854;BME280;40747;49.480;8.658;2023-05-23T07:29:59;100443.53;;;17.17;85.97
54854;BME280;40747;49.480;8.658;2023-05-23T07:32:24;100449.22;;;17.11;86.67
54854;BME280;40747;49.480;8.658;2023-05-23T07:34:49;100444.22;;;17.21;86.81
54854;BME280;40747;49.480;8.658;2023-05-23T07:37:14;100435.97;;;17.26;86.23
54854;BME280;40747;49.480;8.658;2023-05-23T07:39:40;100445.06;;;17.38;85.83
54854;BME280;40747;49.480;8.658;2023-05-23T07:42:05;100437.94;;;17.22;85.63
54854;BME280;40747;49.480;8.658;2023-05-23T07:44:31;100433.06;;;17.14;85.61
54854;BME280;40747;49.480;8.658;2023-05-23T07:46:56;100438.38;;;17.14;85.92
54854;BME280;40747;49.480;8.658;2023-05-23T07:49:21;100439.06;;;17.18;85.50
54854;BME280;40747;49.480;8.658;2023-05-23T07:51:47;100437.34;;;17.17;86.72
54854;BME280;40747;49.480;8.658;2023-05-23T07:54:12;100435.13;;;17.25;86.44
54854;BME280;40747;49.480;8.658;2023-05-23T07:56:37;100434.09;;;17.28;86.87
54854;BME280;40747;49.480;8.658;2023-05-23T07:59:03;100432.03;;;17.33;84.85
54854;BME280;40747;49.480;8.658;2023-05-23T08:01:29;100442.47;;;17.52;84.40
54854;BME280;40747;49.480;8.658;2023-05-23T08:03:54;100441.88;;;17.47;83.64
54854;BME280;40747;49.480;8.658;2023-05-23T08:06:19;100444.84;;;17.57;83.66
54854;BME280;40747;49.480;8.658;2023-05-23T08:08:45;100448.97;;;17.62;82.53
54854;BME280;40747;49.480;8.658;2023-05-23T08:11:10;100448.00;;;17.63;80.99
54854;BME280;40747;49.480;8.658;2023-05-23T08:13:35;100450.31;;;17.69;82.58
54854;BME280;40747;49.480;8.658;2023-05-23T08:16:01;100449.94;;;17.92;81.12
54854;BME280;40747;49.480;8.658;2023-05-23T08:18:26;100448.66;;;17.83;80.84
54854;BME280;40747;49.480;8.658;2023-05-23T08:20:52;100451.50;;;18.10;80.90
54854;BME280;40747;49.480;8.658;2023-05-23T08:23:18;100448.84;;;18.25;79.14
54854;BME280;40747;49.480;8.658;2023-05-23T08:25:43;100451.53;;;18.25;78.81
54854;BME280;40747;49.480;8.658;2023-05-23T08:28:08;100421.72;;;18.04;78.20
54854;BME280;40747;49.480;8.658;2023-05-23T08:30:34;100441.00;;;18.38;77.80
54854;BME280;40747;49.480;8.658;2023-05-23T08:32:59;100445.28;;;18.55;76.19
54854;BME280;40747;49.480;8.658;2023-05-23T08:35:28;100442.69;;;18.39;75.94
54854;BME280;40747;49.480;8.658;2023-05-23T08:37:57;100457.53;;;18.28;75.98
54854;BME280;40747;49.480;8.658;2023-05-23T08:40:26;100456.22;;;18.21;76.80
54854;BME280;40747;49.480;8.658;2023-05-23T08:42:53;100438.41;;;18.36;77.68
54854;BME280;40747;49.480;8.658;2023-05-23T08:45:19;100448.06;;;18.53;75.36
54854;BME280;40747;49.480;8.658;2023-05-23T08:47:45;100456.13;;;18.51;75.47
54854;BME280;40747;49.480;8.658;2023-05-23T08:50:13;100454.78;;;18.30;75.52
54854;BME280;40747;49.480;8.658;2023-05-23T08:52:47;100461.06;;;18.29;76.00
54854;BME280;40747;49.480;8.658;2023-05-23T08:55:15;100455.75;;;18.43;76.62
54854;BME280;40747;49.480;8.658;2023-05-23T08:57:41;100452.69;;;18.64;76.18
54854;BME280;40747;49.480;8.658;2023-05-23T09:00:11;100456.41;;;18.76;75.13
54854;BME280;40747;49.480;8.658;2023-05-23T09:02:39;100446.78;;;19.02;74.62
54854;BME280;40747;49.480;8.658;2023-05-23T09:05:07;100449.81;;;19.65;73.47
54854;BME280;40747;49.480;8.658;2023-05-23T09:07:34;100454.84;;;19.97;70.81
54854;BME280;40747;49.480;8.658;2023-05-23T09:09:59;100456.81;;;20.21;71.46
54854;BME280;40747;49.480;8.658;2023-05-23T09:12:25;100456.06;;;19.78;69.71
54854;BME280;40747;49.480;8.658;2023-05-23T09:14:50;100452.31;;;19.81;69.27
54854;BME280;40747;49.480;8.658;2023-05-23T09:17:18;100441.38;;;20.11;70.34
54854;BME280;40747;49.480;8.658;2023-05-23T09:19:44;100445.44;;;20.43;69.62
54854;BME280;40747;49.480;8.658;2023-05-23T09:22:11;100448.88;;;20.32;68.45
54854;BME280;40747;49.480;8.658;2023-05-23T09:24:37;100446.22;;;20.45;69.29
54854;BME280;40747;49.480;8.658;2023-05-23T09:27:04;100445.66;;;20.78;68.01
54854;BME280;40747;49.480;8.658;2023-05-23T09:29:30;100444.56;;;20.94;66.67
54854;BME280;40747;49.480;8.658;2023-05-23T09:31:59;100448.78;;;21.09;65.65
54854;BME280;40747;49.480;8.658;2023-05-23T09:34:34;100451.16;;;21.14;66.05
54854;BME280;40747;49.480;8.658;2023-05-23T09:36:59;100461.16;;;20.86;65.76
54854;BME280;40747;49.480;8.658;2023-05-23T09:39:24;100454.13;;;20.72;66.57
54854;BME280;40747;49.480;8.658;2023-05-23T09:41:50;100458.72;;;20.70;67.34
54854;BME280;40747;49.480;8.658;2023-05-23T09:44:21;100455.09;;;20.33;67.77
54854;BME280;40747;49.480;8.658;2023-05-23T09:46:50;100459.06;;;20.27;69.55
54854;BME280;40747;49.480;8.658;2023-05-23T09:49:17;100463.22;;;20.44;69.32
54854;BME280;40747;49.480;8.658;2023-05-23T09:51:43;100451.66;;;20.56;68.65
54854;BME280;40747;49.480;8.658;2023-05-23T09:54:08;100457.00;;;20.69;67.63
54854;BME280;40747;49.480;8.658;2023-05-23T09:56:36;100456.16;;;20.43;68.00
54854;BME280;40747;49.480;8.658;2023-05-23T09:59:04;100455.03;;;20.97;68.23
54854;BME280;40747;49.480;8.658;2023-05-23T10:01:32;100462.25;;;20.84;66.33
54854;BME280;40747;49.480;8.658;2023-05-23T10:03:58;100456.38;;;20.78;67.10
54854;BME280;40747;49.480;8.658;2023-05-23T10:06:35;100452.47;;;20.95;67.00
54854;BME280;40747;49.480;8.658;2023-05-23T10:09:04;100463.78;;;21.12;66.19
54854;BME280;40747;49.480;8.658;2023-05-23T10:14:00;100461.03;;;21.01;66.48
54854;BME280;40747;49.480;8.658;2023-05-23T10:16:32;100461.97;;;21.00;67.89
54854;BME280;40747;49.480;8.658;2023-05-23T10:19:06;100470.28;;;20.84;68.52
54854;BME280;40747;49.480;8.658;2023-05-23T10:21:36;100465.69;;;20.73;68.11
54854;BME280;40747;49.480;8.658;2023-05-23T10:24:04;100468.03;;;20.65;68.67
54854;BME280;40747;49.480;8.658;2023-05-23T10:26:31;100466.84;;;20.56;67.82
54854;BME280;40747;49.480;8.658;2023-05-23T10:28:57;100473.25;;;20.14;67.99
54854;BME280;40747;49.480;8.658;2023-05-23T10:31:23;100466.44;;;20.23;68.85
54854;BME280;40747;49.480;8.658;2023-05-23T10:33:57;100460.44;;;20.20;69.16
54854;BME280;40747;49.480;8.658;2023-05-23T10:36:50;100467.28;;;20.24;69.45
54854;BME280;40747;49.480;8.658;2023-05-23T10:39:45;100471.88;;;20.22;69.85
54854;BME280;40747;49.480;8.658;2023-05-23T10:42:33;100473.69;;;20.34;70.10
54854;BME280;40747;49.480;8.658;2023-05-23T10:45:16;100471.78;;;20.36;70.52
54854;BME280;40747;49.480;8.658;2023-05-23T10:47:42;100475.41;;;20.35;70.19
54854;BME280;40747;49.480;8.658;2023-05-23T10:50:11;100477.66;;;20.67;69.35
54854;BME280;40747;49.480;8.658;2023-05-23T10:52:41;100461.41;;;20.83;67.72
54854;BME280;40747;49.480;8.658;2023-05-23T10:55:15;100472.34;;;21.17;67.27
54854;BME280;40747;49.480;8.658;2023-05-23T10:57:43;100477.56;;;21.19;67.25
54854;BME280;40747;49.480;8.658;2023-05-23T11:00:22;100476.97;;;21.02;67.27
54854;BME280;40747;49.480;8.658;2023-05-23T11:02:53;100474.53;;;20.99;67.00
54854;BME280;40747;49.480;8.658;2023-05-23T11:05:23;100478.63;;;20.79;67.37
54854;BME280;40747;49.480;8.658;2023-05-23T11:08:12;100475.31;;;20.75;66.50
54854;BME280;40747;49.480;8.658;2023-05-23T11:11:00;100484.75;;;20.42;68.03
54854;BME280;40747;49.480;8.658;2023-05-23T11:16:30;100480.56;;;20.51;70.13
54854;BME280;40747;49.480;8.658;2023-05-23T11:21:48;100472.44;;;20.27;71.71
54854;BME280;40747;49.480;8.658;2023-05-23T11:24:14;100482.13;;;20.02;71.95
54854;BME280;40747;49.480;8.658;2023-05-23T11:26:50;100480.06;;;19.93;71.76
54854;BME280;40747;49.480;8.658;2023-05-23T11:29:17;100490.09;;;19.62;71.72
54854;BME280;40747;49.480;8.658;2023-05-23T11:31:43;100492.19;;;19.44;71.71
54854;BME280;40747;49.480;8.658;2023-05-23T11:34:08;100491.63;;;19.39;71.19
54854;BME280;40747;49.480;8.658;2023-05-23T11:36:34;100495.09;;;19.54;70.95
54854;BME280;40747;49.480;8.658;2023-05-23T11:39:01;100487.06;;;19.54;70.90
54854;BME280;40747;49.480;8.658;2023-05-23T11:41:30;100478.88;;;19.57;71.15
54854;BME280;40747;49.480;8.658;2023-05-23T11:43:55;100481.31;;;19.60;70.50
54854;BME280;40747;49.480;8.658;2023-05-23T11:46:21;100479.06;;;19.81;70.34
54854;BME280;40747;49.480;8.658;2023-05-23T11:48:47;100481.16;;;20.03;69.45
54854;BME280;40747;49.480;8.658;2023-05-23T11:51:13;100484.91;;;20.01;68.22
54854;BME280;40747;49.480;8.658;2023-05-23T11:53:39;100485.56;;;20.04;68.02
54854;BME280;40747;49.480;8.658;2023-05-23T11:56:05;100481.59;;;20.10;68.45
54854;BME280;40747;49.480;8.658;2023-05-23T11:58:32;100483.44;;;20.22;68.70
54854;BME280;40747;49.480;8.658;2023-05-23T12:01:00;100477.34;;;20.59;67.08
54854;BME280;40747;49.480;8.658;2023-05-23T12:03:25;100479.31;;;21.07;65.45
54854;BME280;40747;49.480;8.658;2023-05-23T12:05:50;100470.16;;;20.85;66.74
54854;BME280;40747;49.480;8.658;2023-05-23T12:08:16;100476.97;;;21.02;66.29
54854;BME280;40747;49.480;8.658;2023-05-23T12:10:58;100473.88;;;20.95;66.30
54854;BME280;40747;49.480;8.658;2023-05-23T12:13:25;100480.44;;;20.66;68.00
54854;BME280;40747;49.480;8.658;2023-05-23T12:15:58;100478.63;;;20.14;70.88
54854;BME280;40747;49.480;8.658;2023-05-23T12:18:27;100473.47;;;20.11;72.03
54854;BME280;40747;49.480;8.658;2023-05-23T12:20:53;100481.13;;;19.90;72.24
54854;BME280;40747;49.480;8.658;2023-05-23T12:23:22;100479.03;;;19.68;73.29
54854;BME280;40747;49.480;8.658;2023-05-23T12:25:54;100474.56;;;19.81;72.64
54854;BME280;40747;49.480;8.658;2023-05-23T12:28:32;100464.75;;;19.55;72.56
54854;BME280;40747;49.480;8.658;2023-05-23T12:30:58;100477.50;;;19.64;73.27
54854;BME280;40747;49.480;8.658;2023-05-23T12:33:24;100475.28;;;19.71;73.28
54854;BME280;40747;49.480;8.658;2023-05-23T12:35:49;100477.63;;;19.75;73.05
54854;BME280;40747;49.480;8.658;2023-05-23T12:38:15;100472.69;;;19.84;73.25
54854;BME280;40747;49.480;8.658;2023-05-23T12:40:41;100476.34;;;19.95;72.32
54854;BME280;40747;49.480;8.658;2023-05-23T12:43:08;100466.00;;;19.76;71.86
54854;BME280;40747;49.480;8.658;2023-05-23T12:45:35;100475.44;;;19.82;71.84
54854;BME280;40747;49.480;8.658;2023-05-23T12:48:04;100477.75;;;19.74;72.35
54854;BME280;40747;49.480;8.658;2023-05-23T12:50:31;100469.38;;;19.65;72.05
54854;BME280;40747;49.480;8.658;2023-05-23T12:52:57;100478.97;;;19.83;71.99
54854;BME280;40747;49.480;8.658;2023-05-23T12:55:23;100475.50;;;19.95;71.44